createdAt,value
2022-10-30T00:01:07.609Z,5.80
2022-10-30T00:03:34.286Z,5.60
2022-10-30T00:06:04.555Z,5.33
2022-10-30T00:08:31.543Z,5.73
2022-10-30T00:11:05.342Z,6.03
2022-10-30T00:13:32.033Z,5.87
2022-10-30T00:15:58.715Z,6.10
2022-10-30T00:18:25.487Z,6.13
2022-10-30T00:20:52.132Z,5.40
2022-10-30T00:23:20.357Z,5.73
2022-10-30T00:25:47.168Z,6.13
2022-10-30T00:28:13.955Z,5.47
2022-10-30T00:30:41.673Z,5.80
2022-10-30T00:33:08.310Z,6.33
2022-10-30T00:35:35.190Z,6.77
2022-10-30T00:38:02.780Z,6.30
2022-10-30T00:40:29.702Z,6.10
2022-10-30T00:42:56.754Z,5.77
2022-10-30T00:45:23.402Z,6.27
2022-10-30T00:47:53.603Z,5.60
2022-10-30T00:53:03.927Z,5.80
2022-10-30T00:55:37.240Z,4.60
2022-10-30T00:58:07.858Z,4.80
2022-10-30T01:00:35.323Z,5.33
2022-10-30T01:03:02.873Z,5.30
2022-10-30T01:05:31.537Z,5.23
2022-10-30T01:07:58.624Z,5.13
2022-10-30T01:10:26.142Z,4.83
2022-10-30T01:12:53.919Z,5.13
2022-10-30T01:15:29.553Z,5.10
2022-10-30T01:18:07.970Z,5.47
2022-10-30T01:21:01.319Z,5.10
2022-10-30T01:23:41.790Z,5.43
2022-10-30T01:26:47.582Z,5.17
2022-10-30T01:29:28.430Z,5.50
2022-10-30T01:32:01.103Z,5.20
2022-10-30T01:34:56.757Z,6.00
2022-10-30T01:37:48.271Z,5.33
2022-10-30T01:40:17.523Z,4.67
2022-10-30T01:42:50.777Z,4.73
2022-10-30T01:45:26.547Z,5.30
2022-10-30T01:48:09.924Z,4.90
2022-10-30T01:51:10.469Z,5.00
2022-10-30T01:53:51.723Z,4.90
2022-10-30T01:57:01.783Z,5.20
2022-10-30T01:59:39.674Z,4.60
2022-10-30T02:02:08.798Z,5.40
2022-10-30T02:04:36.386Z,5.50
2022-10-30T02:07:03.894Z,5.13
2022-10-30T02:09:34.646Z,5.07
2022-10-30T02:12:02.288Z,5.53
2022-10-30T02:14:34.995Z,5.27
2022-10-30T02:17:06.273Z,5.43
2022-10-30T02:19:33.082Z,5.13
2022-10-30T02:22:02.372Z,5.30
2022-10-30T02:24:29.989Z,5.53
2022-10-30T02:26:56.714Z,5.10
2022-10-30T02:29:23.752Z,5.03
2022-10-30T02:31:50.692Z,5.50
2022-10-30T02:34:17.375Z,5.20
2022-10-30T02:36:44.233Z,5.03
2022-10-30T02:39:11.528Z,6.13
2022-10-30T02:41:38.565Z,5.77
2022-10-30T02:44:06.559Z,5.77
2022-10-30T02:46:34.481Z,4.73
2022-10-30T02:49:01.274Z,4.70
2022-10-30T02:51:27.960Z,4.70
2022-10-30T02:53:54.709Z,5.40
2022-10-30T02:56:21.534Z,5.63
2022-10-30T02:58:48.306Z,4.70
2022-10-30T03:01:17.735Z,5.77
2022-10-30T03:03:45.579Z,4.60
2022-10-30T03:06:15.664Z,5.00
2022-10-30T03:08:43.039Z,4.80
2022-10-30T03:11:13.472Z,6.03
2022-10-30T03:13:43.013Z,5.20
2022-10-30T03:16:15.645Z,5.07
2022-10-30T03:18:42.749Z,4.67
2022-10-30T03:21:13.226Z,5.03
2022-10-30T03:23:40.157Z,4.90
2022-10-30T03:26:07.324Z,5.10
2022-10-30T03:28:46.437Z,4.77
2022-10-30T03:31:16.808Z,4.60
2022-10-30T03:33:44.131Z,5.20
2022-10-30T03:36:13.433Z,5.27
2022-10-30T03:38:40.804Z,5.20
2022-10-30T03:41:09.645Z,4.73
2022-10-30T03:43:36.423Z,5.37
2022-10-30T03:46:03.670Z,5.37
2022-10-30T03:48:30.718Z,5.20
2022-10-30T03:50:59.621Z,5.33
2022-10-30T03:53:28.700Z,4.93
2022-10-30T03:56:03.683Z,5.17
2022-10-30T03:58:39.818Z,4.93
2022-10-30T04:01:10.463Z,4.80
2022-10-30T04:03:40.247Z,5.00
2022-10-30T04:06:08.956Z,5.37
2022-10-30T04:08:35.819Z,5.83
2022-10-30T04:11:03.515Z,5.17
2022-10-30T04:13:30.590Z,5.90
2022-10-30T04:15:58.265Z,5.80
2022-10-30T04:18:26.231Z,5.33
2022-10-30T04:20:53.645Z,5.07
2022-10-30T04:23:21.405Z,5.30
2022-10-30T04:25:48.315Z,4.40
2022-10-30T04:28:15.580Z,5.20
2022-10-30T04:30:43.295Z,5.00
2022-10-30T04:33:13.843Z,5.43
2022-10-30T04:35:41.996Z,4.33
2022-10-30T04:38:14.435Z,5.30
2022-10-30T04:40:43.869Z,4.67
2022-10-30T04:43:12.483Z,5.70
2022-10-30T04:45:40.142Z,5.00
2022-10-30T04:48:14.661Z,5.23
2022-10-30T04:50:43.383Z,5.37
2022-10-30T04:53:14.155Z,5.33
2022-10-30T04:55:41.610Z,4.87
2022-10-30T04:58:10.905Z,4.93
2022-10-30T05:00:39.616Z,5.57
2022-10-30T05:03:19.542Z,4.90
2022-10-30T05:05:48.071Z,5.17
2022-10-30T05:08:14.815Z,5.00
2022-10-30T05:10:41.667Z,5.47
2022-10-30T05:13:11.569Z,4.87
2022-10-30T05:15:39.273Z,5.47
2022-10-30T05:18:06.093Z,5.00
2022-10-30T05:20:32.923Z,5.43
2022-10-30T05:23:00.188Z,5.57
2022-10-30T05:25:27.644Z,5.83
2022-10-30T05:28:01.089Z,4.70
2022-10-30T05:30:30.838Z,4.93
2022-10-30T05:33:00.435Z,5.10
2022-10-30T05:35:29.571Z,5.30
2022-10-30T05:37:57.177Z,5.73
2022-10-30T05:40:24.152Z,5.93
2022-10-30T05:42:51.590Z,5.37
2022-10-30T05:45:19.074Z,5.37
2022-10-30T05:47:55.680Z,4.87
2022-10-30T05:50:22.919Z,5.30
2022-10-30T05:53:09.906Z,5.60
2022-10-30T05:55:38.662Z,5.20
2022-10-30T05:58:12.416Z,4.73
2022-10-30T06:00:44.336Z,5.27
2022-10-30T06:03:14.692Z,5.17
2022-10-30T06:05:45.447Z,5.47
2022-10-30T06:08:13.695Z,5.60
2022-10-30T06:10:40.530Z,5.10
2022-10-30T06:13:16.238Z,5.37
2022-10-30T06:15:50.526Z,5.20
2022-10-30T06:18:17.405Z,5.80
2022-10-30T06:20:47.074Z,5.33
2022-10-30T06:23:23.289Z,5.93
2022-10-30T06:25:55.902Z,5.57
2022-10-30T06:28:55.975Z,5.77
2022-10-30T06:31:22.875Z,5.17
2022-10-30T06:33:51.644Z,5.43
2022-10-30T06:36:18.737Z,5.40
2022-10-30T06:38:45.529Z,5.40
2022-10-30T06:41:15.488Z,5.83
2022-10-30T06:44:01.276Z,5.50
2022-10-30T06:46:33.754Z,5.03
2022-10-30T06:49:01.189Z,5.70
2022-10-30T06:51:29.826Z,5.30
2022-10-30T06:53:58.398Z,4.83
2022-10-30T06:56:40.421Z,5.77
2022-10-30T06:59:27.336Z,5.27
2022-10-30T07:02:11.589Z,5.83
2022-10-30T07:04:45.760Z,5.67
2022-10-30T07:07:13.486Z,5.10
2022-10-30T07:09:40.463Z,5.00
2022-10-30T07:12:08.244Z,5.60
2022-10-30T07:14:53.269Z,5.47
2022-10-30T07:17:35.081Z,5.13
2022-10-30T07:20:08.700Z,5.43
2022-10-30T07:22:39.150Z,4.80
2022-10-30T07:25:07.611Z,4.77
2022-10-30T07:27:53.271Z,4.90
2022-10-30T07:30:35.122Z,5.23
2022-10-30T07:33:15.731Z,5.30
2022-10-30T07:36:02.516Z,5.03
2022-10-30T07:38:52.908Z,5.00
2022-10-30T07:41:34.241Z,5.33
2022-10-30T07:44:33.514Z,5.20
2022-10-30T07:47:25.835Z,4.63
2022-10-30T07:49:55.597Z,5.57
2022-10-30T07:52:22.350Z,4.83
2022-10-30T07:54:49.550Z,5.33
2022-10-30T07:57:40.650Z,4.70
2022-10-30T08:00:26.032Z,4.87
2022-10-30T08:03:05.102Z,4.37
2022-10-30T08:05:51.375Z,4.63
2022-10-30T08:08:26.632Z,5.40
2022-10-30T08:11:05.762Z,4.93
2022-10-30T08:13:32.660Z,5.30
2022-10-30T08:15:59.471Z,4.00
2022-10-30T08:18:26.779Z,4.90
2022-10-30T08:20:53.618Z,4.77
2022-10-30T08:23:21.817Z,5.03
2022-10-30T08:25:48.670Z,5.17
2022-10-30T08:28:15.818Z,4.40
2022-10-30T08:30:45.286Z,4.50
2022-10-30T08:33:15.516Z,4.77
2022-10-30T08:36:02.147Z,4.50
2022-10-30T08:38:32.577Z,4.40
2022-10-30T08:41:22.464Z,4.63
2022-10-30T08:43:54.321Z,4.50
2022-10-30T08:46:24.317Z,4.87
2022-10-30T08:48:51.251Z,5.03
2022-10-30T08:51:18.568Z,4.90
2022-10-30T08:53:49.912Z,4.67
2022-10-30T08:56:17.693Z,4.90
2022-10-30T08:59:00.866Z,4.90
2022-10-30T09:01:27.971Z,4.63
2022-10-30T09:04:20.849Z,5.17
2022-10-30T09:07:22.645Z,4.57
2022-10-30T09:10:27.900Z,4.37
2022-10-30T09:12:58.653Z,4.50
2022-10-30T09:15:26.341Z,6.77
2022-10-30T09:18:00.748Z,5.13
2022-10-30T09:20:29.627Z,4.97
2022-10-30T09:22:56.949Z,5.17
2022-10-30T09:25:24.021Z,4.80
2022-10-30T09:28:09.402Z,5.53
2022-10-30T09:30:57.326Z,4.73
2022-10-30T09:33:25.717Z,4.70
2022-10-30T09:36:21.304Z,4.60
2022-10-30T09:38:49.293Z,4.90
2022-10-30T09:41:50.118Z,4.43
2022-10-30T09:44:27.364Z,5.07
2022-10-30T09:47:25.581Z,5.03
2022-10-30T09:49:59.523Z,4.93
2022-10-30T09:52:28.909Z,4.53
2022-10-30T09:55:09.134Z,4.80
2022-10-30T09:57:36.003Z,4.77
2022-10-30T10:00:22.940Z,4.63
2022-10-30T10:03:09.640Z,4.60
2022-10-30T10:05:55.519Z,4.30
2022-10-30T10:08:48.490Z,5.17
2022-10-30T10:11:40.915Z,4.30
2022-10-30T10:14:14.567Z,4.60
2022-10-30T10:16:42.288Z,4.60
2022-10-30T10:19:33.890Z,6.00
2022-10-30T10:22:03.461Z,5.10
2022-10-30T10:24:36.573Z,4.63
2022-10-30T10:27:23.513Z,4.70
2022-10-30T10:30:20.670Z,4.40
2022-10-30T10:32:50.929Z,5.03
2022-10-30T10:35:23.841Z,4.10
2022-10-30T10:38:18.674Z,4.10
2022-10-30T10:41:19.323Z,5.10
2022-10-30T10:44:24.185Z,4.53
2022-10-30T10:47:01.718Z,4.63
2022-10-30T10:49:48.138Z,4.20
2022-10-30T10:52:22.254Z,3.83
2022-10-30T10:54:59.297Z,4.00
2022-10-30T10:57:29.425Z,4.07
2022-10-30T11:00:13.043Z,3.70
2022-10-30T11:03:05.491Z,4.23
2022-10-30T11:05:43.367Z,3.80
2022-10-30T11:08:28.659Z,4.00
2022-10-30T11:11:05.744Z,3.80
2022-10-30T11:13:41.380Z,4.00
2022-10-30T11:16:27.014Z,4.70
2022-10-30T11:18:58.768Z,4.10
2022-10-30T11:21:26.998Z,4.67
2022-10-30T11:23:54.234Z,4.03
2022-10-30T11:26:21.297Z,4.30
2022-10-30T11:28:47.945Z,4.10
2022-10-30T11:31:19.091Z,4.03
2022-10-30T11:33:46.239Z,4.40
2022-10-30T11:36:16.144Z,3.63
2022-10-30T11:38:43.060Z,4.03
2022-10-30T11:41:13.237Z,4.00
2022-10-30T11:43:41.237Z,4.30
2022-10-30T11:46:11.167Z,4.37
2022-10-30T11:48:40.081Z,3.90
2022-10-30T11:51:07.040Z,3.83
2022-10-30T11:53:42.258Z,3.80
2022-10-30T11:56:22.807Z,4.40
2022-10-30T11:58:53.399Z,4.00
2022-10-30T12:01:25.357Z,5.20
2022-10-30T12:03:53.814Z,4.20
2022-10-30T12:06:25.507Z,4.23
2022-10-30T12:09:03.607Z,4.17
2022-10-30T12:11:32.645Z,3.60
2022-10-30T12:13:59.503Z,4.00
2022-10-30T12:16:26.860Z,4.73
2022-10-30T12:19:01.178Z,4.00
2022-10-30T12:21:31.019Z,4.37
2022-10-30T12:24:06.928Z,3.87
2022-10-30T12:26:34.718Z,3.80
2022-10-30T12:29:03.904Z,3.53
2022-10-30T12:31:41.477Z,4.23
2022-10-30T12:34:19.944Z,4.27
2022-10-30T12:36:52.805Z,3.83
2022-10-30T12:39:27.282Z,3.83
2022-10-30T12:42:02.970Z,3.90
2022-10-30T12:44:40.797Z,3.80
2022-10-30T12:47:07.524Z,4.10
2022-10-30T12:49:41.841Z,3.57
2022-10-30T12:52:47.602Z,4.07
2022-10-30T12:55:37.216Z,4.87
2022-10-30T12:58:16.075Z,3.90
2022-10-30T13:00:56.092Z,4.23
2022-10-30T13:03:35.911Z,4.53
2022-10-30T13:06:10.003Z,4.67
2022-10-30T13:08:44.968Z,4.43
2022-10-30T13:11:18.846Z,4.70
2022-10-30T13:13:53.253Z,4.03
2022-10-30T13:16:28.267Z,4.20
2022-10-30T13:19:01.519Z,4.53
2022-10-30T13:21:36.183Z,4.33
2022-10-30T13:24:09.721Z,3.97
2022-10-30T13:26:40.560Z,4.27
2022-10-30T13:29:30.770Z,4.13
2022-10-30T13:32:23.702Z,4.37
2022-10-30T13:35:02.826Z,4.77
2022-10-30T13:37:54.210Z,4.67
2022-10-30T13:40:27.614Z,4.83
2022-10-30T13:43:04.852Z,4.00
2022-10-30T13:46:05.697Z,4.00
2022-10-30T13:48:58.347Z,3.67
2022-10-30T13:51:28.362Z,4.60
2022-10-30T13:54:22.845Z,3.53
2022-10-30T13:56:51.009Z,4.03
2022-10-30T13:59:21.261Z,4.07
2022-10-30T14:02:01.638Z,3.70
2022-10-30T14:04:47.716Z,3.57
2022-10-30T14:07:40.954Z,3.73
2022-10-30T14:10:16.122Z,3.53
2022-10-30T14:12:55.253Z,4.10
2022-10-30T14:15:31.805Z,3.73
2022-10-30T14:18:13.990Z,3.73
2022-10-30T14:20:41.845Z,3.43
2022-10-30T14:23:12.105Z,3.13
2022-10-30T14:25:39.248Z,4.03
2022-10-30T14:28:06.517Z,3.30
2022-10-30T14:30:34.592Z,2.73
2022-10-30T14:33:01.461Z,3.50
2022-10-30T14:35:42.476Z,3.83
2022-10-30T14:38:09.417Z,3.70
2022-10-30T14:40:53.806Z,3.77
2022-10-30T14:43:34.585Z,3.00
2022-10-30T14:46:20.346Z,3.33
2022-10-30T14:48:57.784Z,4.00
2022-10-30T14:51:30.299Z,3.50
2022-10-30T14:54:00.374Z,3.50
2022-10-30T14:56:45.714Z,2.90
2022-10-30T14:59:22.903Z,3.20
2022-10-30T15:02:14.072Z,3.67
2022-10-30T15:04:57.034Z,3.27
2022-10-30T15:07:31.151Z,3.40
2022-10-30T15:10:03.780Z,3.77
2022-10-30T15:12:58.342Z,3.27
2022-10-30T15:15:28.311Z,4.30
2022-10-30T15:18:19.483Z,3.97
2022-10-30T15:20:54.513Z,3.93
2022-10-30T15:23:31.320Z,4.03
2022-10-30T15:26:10.107Z,4.40
2022-10-30T15:28:38.549Z,3.97
2022-10-30T15:31:08.850Z,3.80
2022-10-30T15:33:38.069Z,4.90
2022-10-30T15:36:07.740Z,4.77
2022-10-30T15:38:34.502Z,4.20
2022-10-30T15:41:02.860Z,5.07
2022-10-30T15:43:34.478Z,5.43
2022-10-30T15:46:01.530Z,5.60
2022-10-30T15:48:31.642Z,5.13
2022-10-30T15:51:01.719Z,5.13
2022-10-30T15:53:40.864Z,4.87
2022-10-30T15:56:13.618Z,5.40
2022-10-30T15:58:44.786Z,5.70
2022-10-30T16:01:27.822Z,5.10
2022-10-30T16:03:55.947Z,6.53
2022-10-30T16:06:27.040Z,5.90
2022-10-30T16:08:54.325Z,5.83
2022-10-30T16:11:22.946Z,6.10
2022-10-30T16:13:50.168Z,6.33
2022-10-30T16:16:19.968Z,5.57
2022-10-30T16:18:47.096Z,5.73
2022-10-30T16:21:16.186Z,6.13
2022-10-30T16:23:49.186Z,5.33
2022-10-30T16:26:39.152Z,5.87
2022-10-30T16:29:17.138Z,7.93
2022-10-30T16:31:50.279Z,6.47
2022-10-30T16:34:26.621Z,7.03
2022-10-30T16:36:56.731Z,6.73
2022-10-30T16:39:24.316Z,6.53
2022-10-30T16:41:51.856Z,6.43
2022-10-30T16:44:43.685Z,6.10
2022-10-30T16:47:32.187Z,6.50
2022-10-30T16:50:01.659Z,6.87
2022-10-30T16:52:38.086Z,6.47
2022-10-30T16:55:27.092Z,7.10
2022-10-30T16:58:09.661Z,7.23
2022-10-30T17:00:39.663Z,7.27
2022-10-30T17:06:07.283Z,6.17
2022-10-30T17:08:53.884Z,7.43
2022-10-30T17:11:37.519Z,7.13
2022-10-30T17:27:03.712Z,7.30
2022-10-30T17:29:55.233Z,6.93
2022-10-30T17:35:41.968Z,7.60
2022-10-30T17:38:48.647Z,7.57
2022-10-30T17:41:26.504Z,7.33
2022-10-30T17:47:39.278Z,6.97
2022-10-30T17:50:09.696Z,7.77
2022-10-30T17:52:42.497Z,7.53
2022-10-30T17:55:25.577Z,8.13
2022-10-30T18:00:50.192Z,7.00
2022-10-30T18:03:24.855Z,6.87
2022-10-30T18:05:56.602Z,7.27
2022-10-30T18:08:26.102Z,7.23
2022-10-30T18:10:55.100Z,9.30
2022-10-30T18:13:22.355Z,7.30
2022-10-30T18:15:54.122Z,7.07
2022-10-30T18:18:21.566Z,7.83
2022-10-30T18:20:50.805Z,7.47
2022-10-30T18:23:46.675Z,8.10
2022-10-30T18:26:15.020Z,8.30
2022-10-30T18:29:00.129Z,8.07
2022-10-30T18:31:34.901Z,7.67
2022-10-30T18:34:02.344Z,7.33
2022-10-30T18:36:29.571Z,7.40
2022-10-30T18:38:58.562Z,7.27
2022-10-30T18:41:45.633Z,7.70
2022-10-30T18:44:17.567Z,8.10
2022-10-30T18:46:44.767Z,9.77
2022-10-30T18:49:11.990Z,10.17
2022-10-30T18:51:42.474Z,8.77
2022-10-30T18:54:17.401Z,7.70
2022-10-30T18:57:10.136Z,7.33
2022-10-30T18:59:36.994Z,7.00
2022-10-30T19:02:04.300Z,7.43
2022-10-30T19:07:39.576Z,8.50
2022-10-30T19:10:17.303Z,8.90
2022-10-30T19:13:10.524Z,8.70
2022-10-30T19:15:34.438Z,7.70
2022-10-30T19:18:02.998Z,8.97
2022-10-30T19:20:50.626Z,9.33
2022-10-30T19:23:22.290Z,7.70
2022-10-30T19:25:51.435Z,8.23
2022-10-30T19:28:19.807Z,8.37
2022-10-30T19:30:55.045Z,7.73
2022-10-30T19:33:23.548Z,7.70
2022-10-30T19:35:58.199Z,8.17
2022-10-30T19:38:25.608Z,7.93
2022-10-30T19:40:54.082Z,7.60
2022-10-30T19:43:20.988Z,7.97
2022-10-30T19:45:51.289Z,7.37
2022-10-30T19:48:40.636Z,8.43
2022-10-30T19:51:12.079Z,8.00
2022-10-30T19:53:39.945Z,8.50
2022-10-30T19:56:09.891Z,8.57
2022-10-30T19:58:37.021Z,7.37
2022-10-30T20:01:03.844Z,8.00
2022-10-30T20:03:30.874Z,7.83
2022-10-30T20:05:57.691Z,8.90
2022-10-30T20:08:25.834Z,9.87
2022-10-30T20:10:55.115Z,9.00
2022-10-30T20:13:25.854Z,9.60
2022-10-30T20:15:54.319Z,9.30
2022-10-30T20:18:23.518Z,8.43
2022-10-30T20:20:52.412Z,8.77
2022-10-30T20:23:23.268Z,8.97
2022-10-30T20:25:52.304Z,8.97
2022-10-30T20:28:28.860Z,9.00
2022-10-30T20:30:56.223Z,8.47
2022-10-30T20:33:25.606Z,9.53
2022-10-30T20:35:59.611Z,8.77
2022-10-30T20:38:32.982Z,8.60
2022-10-30T20:41:02.898Z,8.53
2022-10-30T20:43:39.951Z,9.33
2022-10-30T20:46:09.465Z,9.03
2022-10-30T20:48:38.643Z,8.83
2022-10-30T20:51:12.720Z,9.00
2022-10-30T20:53:42.550Z,9.33
2022-10-30T20:56:09.411Z,8.33
2022-10-30T20:58:36.321Z,8.30
2022-10-30T21:01:03.304Z,9.30
2022-10-30T21:03:30.305Z,9.63
2022-10-30T21:06:02.073Z,9.00
2022-10-30T21:08:37.991Z,8.73
2022-10-30T21:11:18.997Z,9.30
2022-10-30T21:13:51.335Z,9.53
2022-10-30T21:16:28.201Z,9.80
2022-10-30T21:22:13.966Z,8.83
2022-10-30T21:25:10.498Z,7.67
2022-10-30T21:30:23.390Z,9.20
2022-10-30T21:33:18.240Z,8.83
2022-10-30T21:38:49.047Z,9.83
2022-10-30T21:41:20.725Z,9.47
2022-10-30T21:43:56.313Z,8.80
2022-10-30T21:46:26.055Z,9.27
2022-10-30T21:48:57.473Z,9.13
2022-10-30T21:51:41.309Z,9.77
2022-10-30T21:54:18.229Z,9.87
2022-10-30T21:56:47.447Z,9.83
2022-10-30T21:59:24.820Z,9.87
2022-10-30T22:02:04.460Z,9.43
2022-10-30T22:04:38.420Z,9.87
2022-10-30T22:09:58.424Z,8.97
2022-10-30T22:12:32.887Z,9.50
2022-10-30T22:15:03.881Z,9.10
2022-10-30T22:17:38.109Z,9.33
2022-10-30T22:20:05.783Z,9.33
2022-10-30T22:22:32.942Z,9.60
2022-10-30T22:25:00.582Z,10.23
2022-10-30T22:27:30.080Z,10.50
2022-10-30T22:29:57.364Z,10.23
2022-10-30T22:38:20.857Z,9.90
2022-10-30T22:40:48.555Z,9.33
2022-10-30T22:43:15.863Z,10.63
2022-10-30T22:45:44.961Z,9.83
2022-10-30T22:48:12.872Z,9.70
2022-10-30T22:59:13.189Z,9.90
2022-10-30T23:01:48.210Z,10.10
2022-10-30T23:07:13.312Z,10.23
2022-10-30T23:09:43.558Z,8.93
2022-10-30T23:12:11.832Z,9.73
2022-10-30T23:14:39.068Z,10.03
2022-10-30T23:17:13.957Z,9.47
2022-10-30T23:19:49.754Z,10.03
2022-10-30T23:22:20.654Z,9.67
2022-10-30T23:24:50.972Z,9.80
2022-10-30T23:27:23.563Z,9.53
2022-10-30T23:30:09.693Z,9.30
2022-10-30T23:32:38.445Z,10.07
2022-10-30T23:37:56.976Z,9.33
2022-10-30T23:40:29.067Z,9.03
2022-10-30T23:42:59.926Z,8.93
2022-10-30T23:45:30.532Z,8.90
2022-10-30T23:48:15.182Z,9.03
2022-10-30T23:51:13.517Z,9.00
2022-10-30T23:53:41.158Z,9.73
2022-10-30T23:56:09.029Z,8.93
